Time;durP1;ratioP1;P1;durP2;ratioP2;P2;SDS_P1;SDS_P2;PMS_P1;PMS_P2;Temp;Humidity;BMP_temperature;BMP_pressure;BME280_temperature;BME280_humidity;BME280_pressure;Samples;Min_cycle;Max_cycle;Signal;HPM_P1;HPM_P2
2021/04/07 00:01:25;;;;;;;9.80;3.25;;;;;;;26.29;33.09;158063.53;1767719;81;21245;-81
2021/04/07 00:03:57;;;;;;;6.47;3.45;;;;;;;26.25;33.07;158052.89;1767863;81;21257;-80
2021/04/07 00:06:29;;;;;;;6.62;2.60;;;;;;;26.24;33.10;158048.92;1767790;81;21217;-80
2021/04/07 00:09:04;;;;;;;7.50;2.60;;;;;;;26.16;33.21;158029.00;1767697;81;21213;-80
2021/04/07 00:11:36;;;;;;;14.20;4.28;;;;;;;26.13;33.24;158019.70;1767815;81;21213;-79
2021/04/07 00:14:10;;;;;;;6.53;3.27;;;;;;;26.15;33.28;158025.03;1763452;81;21228;-79
2021/04/07 00:16:42;;;;;;;5.17;2.52;;;;;;;26.13;33.28;158019.70;1765084;81;21341;-78
2021/04/07 00:19:15;;;;;;;5.87;2.30;;;;;;;26.07;33.38;158005.09;1767713;81;21402;-78
2021/04/07 00:21:47;;;;;;;12.85;4.47;;;;;;;26.13;33.30;158019.70;1767728;81;21344;-78
2021/04/07 00:24:20;;;;;;;14.00;4.53;;;;;;;26.14;33.34;158022.36;1767687;81;21212;-79
2021/04/07 00:26:52;;;;;;;7.80;3.22;;;;;;;26.11;33.46;158015.69;1767734;81;21272;-79
2021/04/07 00:29:25;;;;;;;3.62;2.58;;;;;;;26.15;33.36;158026.33;1767784;81;22028;-79
2021/04/07 00:31:57;;;;;;;3.65;2.77;;;;;;;26.20;33.38;158038.28;1767695;81;21744;-79
2021/04/07 00:34:33;;;;;;;3.98;2.50;;;;;;;26.26;33.32;158055.56;1767703;80;21520;-78
2021/04/07 00:37:06;;;;;;;5.53;2.98;;;;;;;26.34;33.26;158075.48;1767672;81;21360;-79
2021/04/07 00:39:39;;;;;;;4.42;2.65;;;;;;;26.35;33.26;158078.16;1767823;81;21475;-79
2021/04/07 00:42:12;;;;;;;4.50;2.80;;;;;;;26.40;33.33;158091.41;1767787;81;21446;-79
2021/04/07 00:44:44;;;;;;;7.17;2.90;;;;;;;26.48;33.23;158112.75;1767902;81;21249;-80
2021/04/07 00:47:18;;;;;;;5.78;3.08;;;;;;;26.50;33.18;158119.38;1767846;81;21313;-81
2021/04/07 00:49:51;;;;;;;5.47;2.87;;;;;;;26.53;33.16;158126.00;1767662;81;22129;-81
2021/04/07 00:52:24;;;;;;;9.25;3.55;;;;;;;26.56;33.18;158135.34;1767823;81;21577;-81
2021/04/07 00:54:56;;;;;;;21.45;6.10;;;;;;;26.57;33.18;158137.95;1746392;81;21448;-81
2021/04/07 00:57:29;;;;;;;30.97;7.28;;;;;;;26.57;33.18;158137.95;1767879;81;21639;-81
2021/04/07 01:00:01;;;;;;;22.87;7.08;;;;;;;26.53;33.27;158126.00;1767753;81;21820;-81
2021/04/07 01:02:33;;;;;;;13.03;4.70;;;;;;;26.46;33.35;158108.73;1767796;81;21482;-81
2021/04/07 01:05:08;;;;;;;8.23;4.30;;;;;;;26.37;33.49;158084.78;1767640;81;21208;-80
2021/04/07 01:07:40;;;;;;;17.12;5.20;;;;;;;26.36;33.55;158080.81;1767802;81;21729;-81
2021/04/07 01:10:13;;;;;;;14.68;5.35;;;;;;;26.27;33.70;158058.22;1767831;81;21244;-80
2021/04/07 01:12:47;;;;;;;18.70;5.20;;;;;;;26.23;33.75;158046.27;1767689;81;21868;-80
2021/04/07 01:15:20;;;;;;;7.62;3.90;;;;;;;26.21;33.87;158042.30;1767755;80;21239;-80
2021/04/07 01:17:53;;;;;;;6.83;3.17;;;;;;;26.25;33.88;158051.59;1767575;80;21749;-81
2021/04/07 01:20:26;;;;;;;4.83;3.17;;;;;;;26.29;33.91;158062.19;1746758;81;21208;-79
2021/04/07 01:23:01;;;;;;;6.28;3.20;;;;;;;26.39;33.84;158088.80;1767747;81;21697;-81
2021/04/07 01:25:34;;;;;;;4.80;2.95;;;;;;;26.43;33.82;158100.80;1767676;81;21253;-80
2021/04/07 01:28:06;;;;;;;9.13;3.85;;;;;;;26.46;33.83;158107.44;1767797;81;21229;-81
2021/04/07 01:30:48;;;;;;;10.05;3.55;;;;;;;26.53;33.79;158128.67;1767736;81;21261;-80
2021/04/07 01:33:25;;;;;;;8.75;3.87;;;;;;;26.58;33.82;158140.63;1767839;81;21225;-80
2021/04/07 01:35:58;;;;;;;4.42;3.35;;;;;;;26.68;33.80;158168.55;1767918;81;21202;-80
2021/04/07 01:38:30;;;;;;;7.78;3.92;;;;;;;26.78;33.73;158195.13;1767874;81;21236;-81
2021/04/07 01:41:02;;;;;;;10.88;4.83;;;;;;;26.79;33.71;158197.78;1767878;81;21395;-81
2021/04/07 01:43:35;;;;;;;13.70;4.17;;;;;;;26.77;33.74;158191.16;1767975;81;21201;-81
2021/04/07 01:46:07;;;;;;;9.63;4.40;;;;;;;26.74;33.88;158183.16;1767764;81;22037;-81
2021/04/07 01:48:41;;;;;;;13.65;5.58;;;;;;;26.71;33.97;158176.53;1767645;80;21217;-83
2021/04/07 01:51:14;;;;;;;6.83;3.65;;;;;;;26.72;34.05;158177.84;1767704;81;21214;-82
2021/04/07 01:53:47;;;;;;;11.18;5.28;;;;;;;26.70;34.14;158173.88;1746812;81;21276;-82
2021/04/07 01:56:19;;;;;;;14.38;5.53;;;;;;;26.65;34.28;158159.25;1767559;81;21209;-82
2021/04/07 01:59:06;;;;;;;18.02;6.05;;;;;;;26.54;34.54;158131.34;1767627;81;21328;-82
2021/04/07 02:01:39;;;;;;;21.57;6.78;;;;;;;26.53;34.62;158128.67;1767579;81;21178;-83
2021/04/07 02:04:14;;;;;;;14.85;4.78;;;;;;;26.42;34.79;158096.78;1767520;81;21265;-82
2021/04/07 02:06:47;;;;;;;8.43;3.98;;;;;;;26.38;34.91;158086.13;1767616;81;21477;-82
2021/04/07 02:09:20;;;;;;;6.53;3.72;;;;;;;26.10;35.30;158011.72;1767681;81;21570;-82
2021/04/07 02:11:54;;;;;;;6.78;4.22;;;;;;;26.27;35.13;158058.22;1767506;81;22017;-83
2021/04/07 02:14:27;;;;;;;11.43;6.55;;;;;;;26.32;34.91;158070.16;1767515;80;21194;-82
2021/04/07 02:17:02;;;;;;;11.33;6.03;;;;;;;25.96;34.92;157974.53;1767509;81;21229;-83
2021/04/07 02:19:36;;;;;;;9.28;6.28;;;;;;;25.90;35.07;157958.61;1767488;81;21198;-83
2021/04/07 02:22:13;;;;;;;11.10;6.90;;;;;;;25.85;34.98;157946.66;1767628;81;21229;-82
2021/04/07 02:24:49;;;;;;;8.95;6.53;;;;;;;25.79;35.17;157930.70;1768500;81;21257;-82
2021/04/07 02:27:24;;;;;;;12.10;6.97;;;;;;;25.61;35.08;157881.52;1768452;81;21205;-82
2021/04/07 02:29:57;;;;;;;10.48;7.33;;;;;;;25.55;35.16;157865.61;1768416;81;21626;-82
2021/04/07 02:32:29;;;;;;;9.10;6.70;;;;;;;25.29;35.34;157795.25;1768537;81;21360;-82
2021/04/07 02:35:02;;;;;;;11.93;6.87;;;;;;;25.30;35.24;157799.22;1768651;81;21339;-82
2021/04/07 02:37:34;;;;;;;9.30;6.85;;;;;;;25.16;35.35;157762.05;1768720;81;21824;-82
2021/04/07 02:40:07;;;;;;;9.33;6.95;;;;;;;24.99;35.47;157715.55;1768581;81;21332;-82
2021/04/07 02:42:40;;;;;;;10.65;7.00;;;;;;;24.97;35.53;157710.22;1768521;81;21254;-82
2021/04/07 02:45:14;;;;;;;8.78;6.00;;;;;;;25.07;35.48;157738.11;1768467;81;21340;-83
2021/04/07 02:47:46;;;;;;;8.45;6.12;;;;;;;25.16;35.43;157762.05;1768502;81;21329;-82
2021/04/07 02:50:18;;;;;;;7.90;5.85;;;;;;;25.31;35.21;157800.53;1768473;81;21359;-82
2021/04/07 02:52:50;;;;;;;10.28;5.55;;;;;;;25.28;35.26;157792.59;1768524;81;21705;-82
2021/04/07 02:55:22;;;;;;;8.55;6.05;;;;;;;25.35;35.22;157811.16;1768726;81;21864;-82
2021/04/07 02:57:55;;;;;;;12.33;6.72;;;;;;;25.36;35.25;157815.13;1766016;81;21205;-83
2021/04/07 03:00:28;;;;;;;8.80;5.90;;;;;;;25.37;35.25;157816.48;1765982;81;21439;-83
2021/04/07 03:03:00;;;;;;;9.75;5.62;;;;;;;25.26;35.27;157787.28;1744672;81;21194;-83
2021/04/07 03:05:32;;;;;;;9.10;6.17;;;;;;;25.10;35.39;157744.73;1765964;81;22091;-84
2021/04/07 03:08:05;;;;;;;8.55;5.95;;;;;;;24.96;35.48;157707.56;1765049;81;21649;-84
2021/04/07 03:10:37;;;;;;;8.55;5.35;;;;;;;24.84;35.59;157677.08;1765108;81;21721;-83
2021/04/07 03:13:09;;;;;;;10.65;6.00;;;;;;;24.71;35.75;157641.22;1765046;81;21357;-84
2021/04/07 03:15:42;;;;;;;10.93;6.03;;;;;;;24.58;35.99;157605.41;1765073;81;21372;-83
2021/04/07 03:18:15;;;;;;;12.35;7.08;;;;;;;24.44;36.17;157568.20;1765138;81;22172;-83
2021/04/07 03:20:47;;;;;;;10.60;6.65;;;;;;;24.31;36.30;157533.70;1765210;81;21344;-82
2021/04/07 03:23:19;;;;;;;14.03;7.35;;;;;;;24.31;36.36;157533.70;1765179;81;21300;-82
2021/04/07 03:25:51;;;;;;;10.13;7.22;;;;;;;24.14;36.57;157488.64;1765163;81;21213;-82
2021/04/07 03:28:24;;;;;;;10.23;7.10;;;;;;;24.05;36.61;157464.78;1765286;81;21411;-83
2021/04/07 03:30:57;;;;;;;10.18;5.83;;;;;;;24.03;36.59;157459.47;1765307;81;21276;-83
2021/04/07 03:33:33;;;;;;;9.28;6.17;;;;;;;24.00;36.45;157452.84;1765206;81;21367;-83
2021/04/07 03:36:06;;;;;;;10.08;5.45;;;;;;;23.97;36.44;157443.53;1765302;81;21364;-83
2021/04/07 03:38:39;;;;;;;8.73;5.30;;;;;;;23.86;36.44;157415.72;1765308;81;22241;-84
2021/04/07 03:41:12;;;;;;;11.50;6.17;;;;;;;23.84;36.44;157409.09;1765033;81;21423;-84
2021/04/07 03:43:45;;;;;;;7.85;5.12;;;;;;;23.80;36.38;157399.78;1765099;81;21344;-82
2021/04/07 03:46:18;;;;;;;10.03;5.28;;;;;;;23.81;36.37;157401.13;1765175;81;21352;-86
2021/04/07 03:48:51;;;;;;;7.67;5.03;;;;;;;23.79;36.30;157397.13;1744041;81;21828;-84
2021/04/07 03:51:24;;;;;;;10.10;5.62;;;;;;;23.76;36.36;157387.84;1765095;81;21876;-79
2021/04/07 03:57:22;;;;;;;12.35;5.60;;;;;;;23.78;36.39;157393.16;1766156;80;21368;-80
2021/04/07 03:59:55;;;;;;;7.33;4.40;;;;;;;23.81;36.40;157401.13;1770285;80;21228;-82
2021/04/07 04:02:27;;;;;;;8.95;5.53;;;;;;;23.83;36.23;157406.44;1770705;81;21265;-78
2021/04/07 04:05:00;;;;;;;8.75;4.42;;;;;;;23.88;36.09;157421.03;1766269;81;21265;-84
2021/04/07 04:07:33;;;;;;;7.55;4.78;;;;;;;23.94;36.05;157435.61;1760082;81;21349;-78
2021/04/07 04:10:06;;;;;;;8.60;5.85;;;;;;;23.96;35.96;157440.88;1760172;81;21214;-78
2021/04/07 04:12:38;;;;;;;10.95;6.15;;;;;;;24.01;35.95;157454.16;1760112;81;21253;-78
2021/04/07 04:15:13;;;;;;;8.10;5.40;;;;;;;23.94;36.08;157436.91;1760169;81;21348;-83
2021/04/07 04:17:49;;;;;;;9.03;6.00;;;;;;;23.88;36.23;157421.03;1759938;81;21332;-85
2021/04/07 04:20:23;;;;;;;9.80;5.10;;;;;;;23.86;36.39;157415.72;1760813;81;21247;-86
2021/04/07 04:22:55;;;;;;;8.45;4.75;;;;;;;23.98;36.25;157447.53;1759941;81;21226;-83
2021/04/07 04:25:29;;;;;;;7.95;4.67;;;;;;;24.02;36.21;157456.81;1760876;81;21210;-82
2021/04/07 04:28:02;;;;;;;8.10;4.37;;;;;;;24.13;36.12;157485.98;1760855;81;21269;-81
2021/04/07 04:30:34;;;;;;;8.30;4.35;;;;;;;24.17;36.02;157497.91;1760878;81;21210;-83
2021/04/07 04:33:07;;;;;;;8.58;4.40;;;;;;;24.10;35.72;157478.02;1761060;81;22035;-81
2021/04/07 04:35:39;;;;;;;7.15;4.47;;;;;;;24.03;35.87;157459.47;1760794;81;21194;-80
2021/04/07 04:38:13;;;;;;;7.40;4.35;;;;;;;24.03;36.02;157459.47;1759982;81;21900;-79
2021/04/07 04:40:45;;;;;;;7.28;4.62;;;;;;;23.89;36.36;157422.33;1759958;81;22073;-83
2021/04/07 04:43:18;;;;;;;10.23;5.30;;;;;;;24.11;35.99;157480.66;1760090;81;21240;-79
2021/04/07 04:45:51;;;;;;;8.58;5.55;;;;;;;24.16;35.75;157495.25;1759943;81;21705;-81
2021/04/07 04:48:26;;;;;;;7.53;5.35;;;;;;;24.19;35.70;157501.92;1760052;81;21245;-81
2021/04/07 04:50:59;;;;;;;8.95;6.17;;;;;;;24.24;35.52;157516.52;1761155;81;22081;-75
2021/04/07 04:53:37;;;;;;;10.68;6.55;;;;;;;24.30;35.50;157532.41;1759964;81;21907;-82
2021/04/07 04:56:16;;;;;;;12.30;7.08;;;;;;;24.31;35.41;157533.70;1761076;81;21828;-77
2021/04/07 04:58:49;;;;;;;12.30;7.22;;;;;;;24.30;35.52;157532.41;1759941;81;21206;-81
2021/04/07 05:01:22;;;;;;;9.40;6.55;;;;;;;24.39;35.37;157554.97;1765708;81;21236;-80
2021/04/07 05:03:56;;;;;;;9.33;6.40;;;;;;;24.40;35.44;157558.92;1770394;81;21213;-78
2021/04/07 05:06:39;;;;;;;9.88;6.53;;;;;;;24.41;35.44;157561.58;1770772;81;21383;-80
2021/04/07 05:09:14;;;;;;;8.90;6.10;;;;;;;24.41;35.40;157560.28;1770492;81;21713;-79
2021/04/07 05:11:46;;;;;;;8.25;5.78;;;;;;;24.46;35.23;157573.56;1770627;81;21902;-80
2021/04/07 05:14:19;;;;;;;10.50;5.60;;;;;;;24.48;35.15;157580.19;1770383;81;22140;-76
2021/04/07 05:16:51;;;;;;;7.47;5.28;;;;;;;24.55;35.16;157598.78;1770503;81;21213;-79
2021/04/07 05:19:46;;;;;;;9.43;4.53;;;;;;;24.60;35.12;157610.72;1770490;81;21411;-80
2021/04/07 05:22:20;;;;;;;5.62;4.60;;;;;;;24.65;35.01;157626.63;1770553;81;21205;-78
2021/04/07 05:28:31;;;;;;;5.47;3.83;;;;;;;24.52;34.94;157589.52;1770608;81;21157;-78
2021/04/07 05:34:32;;;;;;;3.02;2.40;;;;;;;24.19;35.13;157503.22;1770602;81;21146;-80
2021/04/07 05:37:04;;;;;;;3.30;2.47;;;;;;;24.01;34.96;157455.52;1770483;81;21347;-80
2021/04/07 05:39:37;;;;;;;2.85;2.20;;;;;;;23.94;35.00;157435.61;1770709;81;21338;-81
2021/04/07 05:42:09;;;;;;;2.40;2.20;;;;;;;23.88;35.12;157419.67;1770561;81;21320;-81
2021/04/07 05:44:42;;;;;;;2.33;2.05;;;;;;;23.68;35.09;157366.59;1770519;81;21831;-78
2021/04/07 05:47:14;;;;;;;2.42;2.02;;;;;;;23.49;35.54;157316.25;1770465;81;21356;-82
2021/04/07 05:49:47;;;;;;;3.98;2.75;;;;;;;23.46;35.55;157306.92;1770618;81;21195;-82
2021/04/07 05:52:19;;;;;;;3.83;2.62;;;;;;;23.38;35.71;157285.73;1770644;81;21211;-80
2021/04/07 05:54:51;;;;;;;4.67;3.12;;;;;;;23.28;36.06;157260.53;1770643;81;22088;-78
2021/04/07 05:57:24;;;;;;;3.52;3.20;;;;;;;23.27;36.40;157257.88;1770496;81;21217;-83
2021/04/07 05:59:56;;;;;;;4.12;2.75;;;;;;;23.29;36.50;157261.89;1770494;81;21220;-83
2021/04/07 06:02:28;;;;;;;3.90;3.10;;;;;;;23.31;36.35;157268.50;1775240;80;21266;-81
2021/04/07 06:05:01;;;;;;;3.37;2.85;;;;;;;23.29;36.46;157261.89;1775460;80;22220;-83
2021/04/07 06:07:33;;;;;;;3.08;2.70;;;;;;;23.14;36.34;157222.12;1767877;81;21201;-83
2021/04/07 06:10:05;;;;;;;3.70;3.17;;;;;;;23.08;36.62;157206.25;1767903;81;21823;-83
2021/04/07 06:12:38;;;;;;;3.80;2.70;;;;;;;23.17;36.57;157231.38;1767937;81;21228;-82
2021/04/07 06:15:12;;;;;;;2.92;2.55;;;;;;;23.23;36.29;157245.95;1767836;81;21268;-79
2021/04/07 06:17:57;;;;;;;4.17;3.00;;;;;;;23.18;36.34;157232.73;1767872;81;21206;-79
2021/04/07 06:20:20;;;;;;;4.50;3.40;;;;;;;23.20;36.45;157238.05;1766933;81;21264;-78
2021/04/07 06:22:54;;;;;;;4.17;3.20;;;;;;;23.18;36.57;157232.73;1767700;81;21217;-80
2021/04/07 06:25:27;;;;;;;4.58;3.95;;;;;;;23.18;36.57;157232.73;1767947;81;21455;-81
2021/04/07 06:28:01;;;;;;;4.47;3.67;;;;;;;23.16;36.29;157227.42;1767706;81;21746;-79
2021/04/07 06:30:43;;;;;;;4.92;3.70;;;;;;;23.03;36.21;157194.22;1767734;81;21202;-79
2021/04/07 06:33:23;;;;;;;4.40;3.67;;;;;;;23.03;36.48;157192.91;1765339;79;21262;-78
2021/04/07 06:35:58;;;;;;;4.75;3.50;;;;;;;22.95;36.41;157173.03;1761333;81;21706;-78
2021/04/07 06:38:32;;;;;;;4.80;3.60;;;;;;;22.94;36.66;157169.08;1761140;81;21183;-79
2021/04/07 06:41:04;;;;;;;4.42;3.47;;;;;;;22.98;36.80;157181.00;1761059;81;21344;-77
2021/04/07 06:43:37;;;;;;;4.95;3.25;;;;;;;23.01;36.48;157188.95;1760938;81;21199;-80
2021/04/07 06:46:11;;;;;;;3.47;2.87;;;;;;;23.03;36.85;157192.91;1761036;81;22217;-76
2021/04/07 06:52:26;;;;;;;4.53;2.70;;;;;;;23.08;36.51;157206.25;1761255;81;21177;-75
2021/04/07 06:55:01;;;;;;;5.58;2.75;;;;;;;23.04;36.48;157196.88;1761095;81;21348;-76
2021/04/07 06:57:34;;;;;;;4.58;2.92;;;;;;;23.03;36.23;157194.22;1761374;81;21376;-76
2021/04/07 07:00:18;;;;;;;3.25;2.52;;;;;;;23.06;36.09;157202.23;1762146;81;21341;-75
2021/04/07 07:02:58;;;;;;;3.02;2.42;;;;;;;23.08;36.09;157207.55;1760537;81;21356;-77
2021/04/07 07:08:50;;;;;;;2.58;2.35;;;;;;;23.26;36.18;157253.92;1754324;81;20223;-82
2021/04/07 07:11:23;;;;;;;4.58;2.22;;;;;;;23.45;36.28;157305.63;1758666;81;21305;-85
2021/04/07 07:13:58;;;;;;;2.52;2.10;;;;;;;23.57;36.24;157337.44;1756116;81;22087;-84
2021/04/07 07:16:30;;;;;;;4.65;2.60;;;;;;;23.65;35.89;157358.63;1712241;81;21461;-87
2021/04/07 07:22:42;;;;;;;3.17;2.17;;;;;;;23.85;35.81;157411.70;1758467;81;21186;-79
2021/04/07 07:25:14;;;;;;;3.12;2.30;;;;;;;24.08;35.53;157472.70;1713924;81;21718;-78
2021/04/07 07:27:47;;;;;;;2.12;1.77;;;;;;;24.20;35.17;157504.53;1737512;81;22058;-79
2021/04/07 07:30:19;;;;;;;2.22;2.02;;;;;;;24.19;35.20;157501.92;1758690;81;21250;-77
2021/04/07 07:32:52;;;;;;;2.60;2.30;;;;;;;24.19;34.97;157501.92;1714002;81;21214;-80
2021/04/07 07:35:27;;;;;;;2.92;2.20;;;;;;;24.22;35.08;157509.84;1759019;81;21247;-78
2021/04/07 07:38:01;;;;;;;3.67;2.87;;;;;;;24.15;34.78;157492.59;1760006;81;21356;-78
2021/04/07 07:40:39;;;;;;;4.47;2.95;;;;;;;23.97;34.97;157444.88;1758664;81;21377;-76
2021/04/07 07:43:24;;;;;;;4.35;3.10;;;;;;;23.86;35.03;157415.72;1759154;81;21352;-77
2021/04/07 07:46:17;;;;;;;3.70;3.20;;;;;;;23.70;35.66;157373.22;1682407;84;21360;-77
2021/04/07 07:48:55;;;;;;;3.33;2.58;;;;;;;23.69;35.73;157369.25;1698752;84;21911;-81
2021/04/07 07:51:28;;;;;;;3.90;2.80;;;;;;;23.72;35.68;157378.53;1699253;84;22039;-78
2021/04/07 07:54:05;;;;;;;3.95;2.72;;;;;;;23.75;35.64;157385.14;1699111;84;21758;-79
2021/04/07 07:56:42;;;;;;;4.12;3.05;;;;;;;23.74;35.61;157383.84;1659079;84;21325;-79
2021/04/07 07:59:37;;;;;;;3.58;2.60;;;;;;;23.67;35.93;157363.94;1758691;81;21400;-79
2021/04/07 08:02:25;;;;;;;4.05;2.77;;;;;;;23.71;36.15;157374.56;1758585;81;21276;-80
2021/04/07 08:04:55;;;;;;;3.50;2.83;;;;;;;23.86;36.13;157414.36;1767886;81;21367;-77
2021/04/07 08:07:32;;;;;;;5.35;2.70;;;;;;;24.00;36.34;157452.84;1763424;81;21340;-78
2021/04/07 08:10:05;;;;;;;3.83;2.92;;;;;;;24.03;35.81;157460.77;1763698;81;21470;-78
2021/04/07 08:12:40;;;;;;;3.42;2.47;;;;;;;24.09;35.98;157476.70;1763724;81;21356;-79
2021/04/07 08:15:14;;;;;;;2.45;2.17;;;;;;;24.31;35.84;157535.06;1763843;81;21397;-78
2021/04/07 08:17:52;;;;;;;3.05;2.50;;;;;;;24.40;35.75;157558.92;1763715;81;21887;-75
2021/04/07 08:20:28;;;;;;;3.52;2.77;;;;;;;24.52;35.57;157590.81;1763813;81;21345;-78
2021/04/07 08:23:03;;;;;;;3.47;2.35;;;;;;;24.59;35.21;157609.42;1763741;81;21226;-77
2021/04/07 08:25:37;;;;;;;6.65;2.45;;;;;;;24.71;34.46;157641.22;1763857;81;21190;-77
2021/04/07 08:28:13;;;;;;;2.33;2.05;;;;;;;24.81;34.40;157667.80;1763695;81;21364;-79
2021/04/07 08:30:48;;;;;;;2.10;1.60;;;;;;;24.90;34.58;157691.67;1763636;81;21701;-79
2021/04/07 08:33:22;;;;;;;2.90;1.50;;;;;;;24.84;34.24;157677.08;1763714;81;21395;-78
2021/04/07 08:35:59;;;;;;;4.28;2.92;;;;;;;24.76;34.11;157654.50;1763684;81;21400;-81
2021/04/07 08:38:34;;;;;;;3.20;2.40;;;;;;;24.73;34.29;157646.53;1764160;81;21272;-83
2021/04/07 08:41:22;;;;;;;2.22;1.80;;;;;;;24.80;34.26;157665.12;1763868;81;21607;-75
2021/04/07 08:43:57;;;;;;;1.70;1.42;;;;;;;24.87;34.10;157685.05;1763888;81;21884;-80
2021/04/07 08:46:46;;;;;;;1.70;1.57;;;;;;;24.87;33.90;157683.69;1764842;81;21341;-78
2021/04/07 08:49:41;;;;;;;;;;;;;;;24.73;33.99;157647.88;1767635;81;21219;-77
2021/04/07 08:52:23;;;;;;;2.22;1.80;;;;;;;24.54;33.72;157596.13;1764826;81;20270;-80
2021/04/07 08:54:59;;;;;;;2.35;1.90;;;;;;;24.36;34.31;157546.98;1763346;81;21226;-85
2021/04/07 08:57:39;;;;;;;2.70;2.08;;;;;;;24.37;34.04;157550.95;1764643;81;21341;-80
2021/04/07 09:00:15;;;;;;;1.70;1.60;;;;;;;24.34;34.17;157543.03;1764684;81;21348;-77
2021/04/07 09:03:01;;;;;;;3.67;1.60;;;;;;;24.39;34.11;157556.27;1763937;81;21353;-78
2021/04/07 09:05:48;;;;;;;2.72;1.50;;;;;;;24.47;33.99;157576.22;1762330;81;21388;-82
2021/04/07 09:08:27;;;;;;;2.65;1.60;;;;;;;24.41;33.71;157560.28;1761019;81;22212;-76
2021/04/07 09:11:03;;;;;;;2.33;1.60;;;;;;;24.38;33.81;157552.31;1762044;81;21630;-78
2021/04/07 09:13:38;;;;;;;2.05;1.60;;;;;;;24.30;33.67;157531.09;1760776;81;21364;-79
2021/04/07 09:16:10;;;;;;;3.10;1.90;;;;;;;24.25;33.63;157517.81;1741135;81;21218;-78
2021/04/07 09:18:51;;;;;;;2.12;1.80;;;;;;;24.30;33.89;157531.09;1760787;81;21288;-80
2021/04/07 09:21:22;;;;;;;2.55;2.05;;;;;;;24.38;33.80;157552.31;1761927;81;21305;-80
2021/04/07 09:23:58;;;;;;;2.47;2.17;;;;;;;24.42;33.54;157564.23;1761298;81;21596;-82
2021/04/07 09:26:33;;;;;;;2.30;1.85;;;;;;;24.42;33.54;157564.23;1760943;81;21218;-81
2021/04/07 09:29:23;;;;;;;2.20;2.00;;;;;;;24.35;33.58;157544.33;1761247;81;22006;-86
2021/04/07 09:32:14;;;;;;;2.40;2.20;;;;;;;24.26;33.72;157520.47;1761724;81;21218;-82
2021/04/07 09:34:51;;;;;;;1.90;1.70;;;;;;;24.26;33.80;157520.47;1761482;81;21520;-83
2021/04/07 09:37:25;;;;;;;2.45;2.25;;;;;;;24.24;33.97;157516.52;1761132;81;21234;-77
2021/04/07 09:39:58;;;;;;;3.20;2.60;;;;;;;24.26;33.90;157520.47;1761104;81;21383;-81
2021/04/07 09:42:33;;;;;;;3.12;2.42;;;;;;;24.17;33.97;157497.91;1761109;81;21315;-81
2021/04/07 09:45:09;;;;;;;2.98;2.30;;;;;;;24.17;34.21;157496.61;1739948;81;21396;-81
2021/04/07 09:47:56;;;;;;;3.70;2.77;;;;;;;24.13;34.31;157487.28;1760696;81;21372;-86
2021/04/07 09:50:33;;;;;;;4.35;2.80;;;;;;;24.17;34.20;157496.61;1761292;81;21344;-84
2021/04/07 09:53:05;;;;;;;3.87;2.60;;;;;;;24.15;34.34;157491.30;1762071;81;21595;-84
2021/04/07 09:55:39;;;;;;;3.60;2.90;;;;;;;24.18;34.70;157499.27;1761723;81;21849;-81
2021/04/07 09:58:11;;;;;;;3.08;2.60;;;;;;;24.20;34.34;157505.89;1761660;81;21191;-83
2021/04/07 10:00:45;;;;;;;3.40;2.77;;;;;;;24.10;34.63;157479.36;1761852;81;21285;-86
2021/04/07 10:03:18;;;;;;;3.55;2.85;;;;;;;24.06;34.53;157467.44;1761908;81;21352;-82
2021/04/07 10:05:50;;;;;;;4.60;2.87;;;;;;;23.95;34.65;157438.27;1762056;81;21427;-81
2021/04/07 10:08:26;;;;;;;3.37;2.52;;;;;;;23.82;34.71;157403.78;1759226;81;21199;-88
2021/04/07 10:11:10;;;;;;;4.03;2.90;;;;;;;23.67;34.96;157362.64;1759391;81;21211;-84
2021/04/07 10:13:42;;;;;;;2.25;2.00;;;;;;;23.59;34.95;157342.75;1756224;81;21674;-85
2021/04/07 10:16:16;;;;;;;4.15;2.30;;;;;;;23.60;34.85;157344.06;1759372;81;21653;-84
2021/04/07 10:18:48;;;;;;;2.87;2.00;;;;;;;23.54;35.03;157329.47;1758071;81;21283;-85
2021/04/07 10:21:21;;;;;;;2.83;2.10;;;;;;;23.49;35.04;157314.89;1758160;81;22060;-85
2021/04/07 10:23:55;;;;;;;2.47;1.98;;;;;;;23.40;35.28;157292.34;1758196;81;21226;-86
2021/04/07 10:26:28;;;;;;;2.47;1.95;;;;;;;23.46;35.39;157308.28;1738552;81;21474;-85
2021/04/07 10:29:01;;;;;;;2.87;2.05;;;;;;;23.44;35.10;157302.97;1760781;81;21269;-85
2021/04/07 10:31:36;;;;;;;5.62;2.02;;;;;;;23.36;35.60;157280.42;1759378;81;21225;-84
2021/04/07 10:34:11;;;;;;;2.85;1.92;;;;;;;23.08;36.13;157207.55;1759631;81;21360;-81
2021/04/07 10:36:47;;;;;;;2.25;1.90;;;;;;;22.92;36.63;157163.77;1759326;81;21217;-83
2021/04/07 10:39:20;;;;;;;2.60;2.17;;;;;;;23.04;36.78;157196.88;1759255;81;21407;-84
2021/04/07 10:41:55;;;;;;;2.52;1.90;;;;;;;23.09;36.49;157210.20;1759389;81;21261;-84
2021/04/07 10:44:31;;;;;;;2.40;1.92;;;;;;;22.94;36.46;157169.08;1759373;81;21700;-85
2021/04/07 10:47:03;;;;;;;3.02;1.98;;;;;;;22.92;36.92;157165.08;1759246;81;21231;-85
2021/04/07 10:49:36;;;;;;;2.52;1.90;;;;;;;22.85;36.88;157145.25;1738577;81;21215;-86
2021/04/07 10:52:08;;;;;;;2.02;1.55;;;;;;;22.90;36.77;157159.81;1759517;81;21337;-85
2021/04/07 10:54:41;;;;;;;3.00;1.80;;;;;;;22.89;37.00;157157.16;1759411;81;21314;-85
2021/04/07 10:57:13;;;;;;;3.05;2.20;;;;;;;23.03;37.42;157192.91;1759493;81;21202;-84
2021/04/07 10:59:47;;;;;;;5.28;2.20;;;;;;;23.17;37.29;157231.38;1759586;81;21470;-84
2021/04/07 11:02:19;;;;;;;4.20;2.05;;;;;;;23.35;37.07;157277.77;1759382;81;21259;-83
2021/04/07 11:04:51;;;;;;;2.30;1.85;;;;;;;23.63;36.58;157352.02;1759486;81;21860;-83
2021/04/07 11:07:23;;;;;;;3.90;3.17;;;;;;;23.64;36.71;157355.97;1761237;80;21364;-83
2021/04/07 11:09:56;;;;;;;5.30;2.25;;;;;;;23.56;36.25;157333.44;1764333;81;21249;-83
2021/04/07 11:12:28;;;;;;;3.75;3.20;;;;;;;23.48;36.23;157312.23;1719548;81;21238;-82
2021/04/07 11:15:05;;;;;;;2.92;2.20;;;;;;;23.47;36.35;157309.58;1763590;81;22093;-82
2021/04/07 11:17:52;;;;;;;3.00;1.80;;;;;;;23.45;36.12;157305.63;1763604;81;22129;-83
2021/04/07 11:20:25;;;;;;;2.40;1.95;;;;;;;23.48;35.88;157313.59;1763666;81;21344;-79
2021/04/07 11:22:58;;;;;;;2.90;2.20;;;;;;;23.44;35.62;157301.63;1764947;81;21357;-86
2021/04/07 11:25:32;;;;;;;4.15;1.98;;;;;;;23.35;36.12;157277.77;1767827;81;21175;-84
2021/04/07 11:28:05;;;;;;;2.77;1.75;;;;;;;23.33;36.46;157272.47;1764472;81;21363;-83
2021/04/07 11:30:42;;;;;;;2.52;1.70;;;;;;;23.57;36.35;157337.44;1764489;81;21348;-85
2021/04/07 11:33:12;;;;;;;2.00;1.50;;;;;;;23.70;35.96;157373.22;1763655;81;21423;-85
2021/04/07 11:35:51;;;;;;;3.05;1.60;;;;;;;23.81;35.74;157401.13;1760381;81;21710;-84
2021/04/07 11:38:21;;;;;;;2.45;1.92;;;;;;;23.70;35.91;157373.22;1764380;81;21360;-87
2021/04/07 11:43:46;;;;;;;2.90;1.60;;;;;;;23.81;35.74;157401.13;1764552;81;21328;-85
2021/04/07 11:46:06;;;;;;;2.65;1.85;;;;;;;23.81;35.77;157401.13;1762455;81;21337;-85
2021/04/07 11:48:40;;;;;;;3.22;2.52;;;;;;;23.76;35.88;157387.84;1763221;81;21356;-85
2021/04/07 11:51:14;;;;;;;2.67;1.98;;;;;;;23.76;35.92;157389.20;1763572;81;21407;-86
2021/04/07 11:53:48;;;;;;;1.90;1.62;;;;;;;;;;1763661;81;21190;-85
2021/04/07 11:56:20;;;;;;;2.72;2.10;;;;;;;23.78;35.59;157394.47;1763664;81;21230;-86
2021/04/07 11:58:52;;;;;;;4.12;1.85;;;;;;;23.59;35.39;157342.75;1763608;81;21221;-86
2021/04/07 12:01:26;;;;;;;3.75;2.85;;;;;;;23.47;36.28;157309.58;1763529;81;21815;-85
2021/04/07 12:03:59;;;;;;;3.47;2.00;;;;;;;23.43;36.31;157299.00;1763638;81;21348;-85
2021/04/07 12:06:31;;;;;;;3.95;1.90;;;;;;;23.31;36.63;157267.20;1764777;81;21748;-86
2021/04/07 12:09:06;;;;;;;3.42;2.42;;;;;;;23.16;36.75;157228.73;1764554;80;21852;-85
2021/04/07 12:11:38;;;;;;;3.33;2.20;;;;;;;23.00;37.00;157184.95;1763714;81;21217;-85
2021/04/07 12:14:10;;;;;;;3.05;2.20;;;;;;;22.97;37.14;157177.05;1763761;81;21330;-86
2021/04/07 12:16:43;;;;;;;2.62;2.02;;;;;;;22.84;36.89;157143.89;1763813;81;21364;-86
2021/04/07 12:19:16;;;;;;;4.58;2.50;;;;;;;22.73;36.87;157113.45;1764420;81;21360;-87
2021/04/07 12:21:49;;;;;;;3.35;2.33;;;;;;;22.77;37.34;157124.00;1764469;81;22217;-87